Time;durP1;ratioP1;P1;durP2;ratioP2;P2;SDS_P1;SDS_P2;PMS_P1;PMS_P2;Temp;Humidity;BMP_temperature;BMP_pressure;BME280_temperature;BME280_humidity;BME280_pressure;Samples;Min_cycle;Max_cycle;Signal;HPM_P1;HPM_P2
2023/02/17 00:02:07;;;;;;;8.27;6.88;;;12.50;81.40;;;;;;4856324;29;20076;-80
2023/02/17 00:04:33;;;;;;;8.13;7.13;;;12.50;81.40;;;;;;4840522;29;20077;-80
2023/02/17 00:06:59;;;;;;;8.18;6.82;;;12.50;81.40;;;;;;4849967;29;20045;-79
2023/02/17 00:09:25;;;;;;;8.25;6.70;;;12.50;81.40;;;;;;4856492;29;20040;-80
2023/02/17 00:11:51;;;;;;;7.70;6.13;;;12.50;81.40;;;;;;4857595;29;20029;-80
2023/02/17 00:14:17;;;;;;;7.75;6.50;;;12.50;81.40;;;;;;4839244;29;20034;-79
2023/02/17 00:16:44;;;;;;;8.40;6.85;;;12.50;81.40;;;;;;4844363;29;20096;-79
2023/02/17 00:19:24;;;;;;;7.97;7.15;;;12.50;81.40;;;;;;4857638;29;20377;-79
2023/02/17 00:21:55;;;;;;;8.52;6.95;;;12.50;81.40;;;;;;4874342;29;20037;-80
2023/02/17 00:24:23;;;;;;;7.38;6.35;;;12.50;81.40;;;;;;4859762;29;20113;-79
2023/02/17 00:26:48;;;;;;;7.90;6.93;;;12.50;81.40;;;;;;4829452;29;20030;-81
2023/02/17 00:29:15;;;;;;;7.30;6.32;;;12.50;81.40;;;;;;4811128;29;20036;-79
2023/02/17 00:31:41;;;;;;;7.80;6.60;;;12.50;81.40;;;;;;4857794;29;20033;-80
2023/02/17 00:34:07;;;;;;;8.32;7.28;;;12.50;82.10;;;;;;4849594;29;20033;-79
2023/02/17 00:36:33;;;;;;;7.15;5.97;;;12.50;81.40;;;;;;4864763;29;20076;-79
2023/02/17 00:38:58;;;;;;;7.53;6.25;;;12.50;81.40;;;;;;4857605;29;20128;-79
2023/02/17 00:41:26;;;;;;;7.32;6.22;;;12.50;81.40;;;;;;4835028;29;20120;-81
2023/02/17 00:43:52;;;;;;;8.07;6.63;;;12.50;81.40;;;;;;4862963;29;20061;-80
2023/02/17 00:46:17;;;;;;;7.20;5.97;;;12.50;81.40;;;;;;4838068;29;20065;-79
2023/02/17 00:48:46;;;;;;;7.50;6.18;;;12.50;81.40;;;;;;4846159;29;20116;-80
2023/02/17 00:51:12;;;;;;;6.40;5.47;;;12.50;81.40;;;;;;4859946;29;20371;-80
2023/02/17 00:53:38;;;;;;;7.15;5.80;;;12.50;81.40;;;;;;4862831;29;20045;-80
2023/02/17 00:56:06;;;;;;;7.53;5.78;;;12.50;82.10;;;;;;4855701;29;20037;-79
2023/02/17 00:58:32;;;;;;;6.82;5.78;;;12.50;81.40;;;;;;4857237;29;20125;-79
2023/02/17 01:00:58;;;;;;;6.80;5.85;;;12.50;81.40;;;;;;4833393;29;20129;-79
2023/02/17 01:03:26;;;;;;;6.28;5.28;;;12.50;81.40;;;;;;4857717;29;20036;-80
2023/02/17 01:05:53;;;;;;;6.38;5.43;;;12.50;81.50;;;;;;4842749;29;20037;-81
2023/02/17 01:08:20;;;;;;;6.90;5.70;;;12.50;81.40;;;;;;4860840;29;20030;-80
2023/02/17 01:10:47;;;;;;;6.72;5.85;;;12.50;81.40;;;;;;4859152;29;20030;-79
2023/02/17 01:13:14;;;;;;;6.78;5.38;;;12.60;81.50;;;;;;4863594;29;20541;-81
2023/02/17 01:15:43;;;;;;;6.55;5.30;;;12.60;81.50;;;;;;4855726;29;20037;-80
2023/02/17 01:18:12;;;;;;;6.50;5.13;;;12.60;81.50;;;;;;4856756;29;20132;-79
2023/02/17 01:20:38;;;;;;;6.22;5.15;;;12.60;81.40;;;;;;4842025;29;20104;-79
2023/02/17 01:23:06;;;;;;;6.30;5.13;;;12.60;81.50;;;;;;4857847;29;20080;-79
2023/02/17 01:25:39;;;;;;;7.03;5.40;;;12.60;81.50;;;;;;4858878;29;20037;-79
2023/02/17 01:28:05;;;;;;;6.80;5.18;;;12.60;81.50;;;;;;4868832;29;20057;-81
2023/02/17 01:30:31;;;;;;;6.72;5.68;;;12.60;81.50;;;;;;4842411;29;20116;-79
2023/02/17 01:32:57;;;;;;;6.80;5.78;;;12.60;81.50;;;;;;4852208;29;20420;-80
2023/02/17 01:35:23;;;;;;;6.97;5.68;;;12.60;81.50;;;;;;4827148;29;20049;-79
2023/02/17 01:37:48;;;;;;;6.10;5.03;;;12.60;81.40;;;;;;4841607;29;20041;-79
2023/02/17 01:40:16;;;;;;;6.30;5.55;;;12.60;81.50;;;;;;4830793;29;20071;-79
2023/02/17 01:42:42;;;;;;;6.25;5.47;;;12.60;81.50;;;;;;4852455;29;20030;-80
2023/02/17 01:45:18;;;;;;;6.40;5.05;;;12.60;81.50;;;;;;4859481;29;20037;-80
2023/02/17 01:47:49;;;;;;;;;;;12.60;81.50;;;;;;4836478;29;20105;-80
2023/02/17 01:50:17;;;;;;;5.05;3.90;;;12.60;81.40;;;;;;4864573;29;19964;-79
2023/02/17 01:52:43;;;;;;;5.68;4.45;;;12.60;81.40;;;;;;4842721;29;20033;-80
2023/02/17 01:55:14;;;;;;;6.25;4.63;;;12.60;81.40;;;;;;4830758;29;20037;-79
2023/02/17 01:57:42;;;;;;;6.60;5.18;;;12.60;81.50;;;;;;4857090;29;20041;-80
2023/02/17 02:00:10;;;;;;;6.53;5.25;;;12.60;81.50;;;;;;4852083;29;20052;-79
2023/02/17 02:02:42;;;;;;;6.90;5.20;;;12.60;81.50;;;;;;4844164;29;20134;-79
2023/02/17 02:05:12;;;;;;;5.97;4.78;;;12.60;81.50;;;;;;4841691;29;20072;-79
2023/02/17 02:07:42;;;;;;;5.85;4.72;;;12.60;81.50;;;;;;4841756;29;20049;-79
2023/02/17 02:10:10;;;;;;;5.88;4.88;;;12.60;81.50;;;;;;4844863;29;20188;-80
2023/02/17 02:12:38;;;;;;;5.85;4.78;;;12.60;81.50;;;;;;4841763;29;20045;-79
2023/02/17 02:15:15;;;;;;;6.25;5.13;;;12.60;81.50;;;;;;4858852;29;20028;-79
2023/02/17 02:18:13;;;;;;;6.88;5.50;;;12.60;81.50;;;;;;4864837;29;20022;-80
2023/02/17 02:20:57;;;;;;;6.15;4.95;;;12.60;81.50;;;;;;4838485;29;20040;-80
2023/02/17 02:23:44;;;;;;;5.85;4.55;;;12.60;81.50;;;;;;4858115;29;20025;-81
2023/02/17 02:26:40;;;;;;;6.05;4.68;;;12.60;81.60;;;;;;4859718;29;20037;-80
2023/02/17 02:30:01;;;;;;;6.60;5.47;;;12.60;81.50;;;;;;4853703;29;20174;-80
2023/02/17 02:32:45;;;;;;;6.28;4.90;;;12.60;81.60;;;;;;4783963;29;20176;-79
2023/02/17 02:35:29;;;;;;;7.72;5.13;;;12.60;81.60;;;;;;4852575;29;20052;-79
2023/02/17 02:38:11;;;;;;;7.68;5.65;;;12.60;81.50;;;;;;4853076;29;20044;-80
2023/02/17 02:40:42;;;;;;;6.47;4.85;;;12.60;81.50;;;;;;4854584;29;20044;-79
2023/02/17 02:43:08;;;;;;;7.20;5.22;;;12.60;81.50;;;;;;4843253;29;20042;-80
2023/02/17 02:45:34;;;;;;;7.85;5.70;;;12.60;81.60;;;;;;4866521;29;20120;-80
2023/02/17 02:48:00;;;;;;;7.25;5.30;;;12.60;81.50;;;;;;4822792;29;20117;-80
2023/02/17 02:50:37;;;;;;;6.70;5.43;;;12.60;81.60;;;;;;4857474;29;20099;-79
2023/02/17 02:53:27;;;;;;;7.47;5.57;;;12.60;81.50;;;;;;4841260;29;20037;-81
2023/02/17 02:55:59;;;;;;;7.15;5.65;;;12.70;81.60;;;;;;4860339;29;20120;-80
2023/02/17 02:58:33;;;;;;;6.72;5.43;;;12.60;81.50;;;;;;4857859;29;20037;-79
2023/02/17 03:01:12;;;;;;;7.80;5.50;;;12.60;81.50;;;;;;4834063;29;20124;-78
2023/02/17 03:04:03;;;;;;;8.15;6.13;;;12.70;81.60;;;;;;4841227;29;20093;-80
2023/02/17 03:06:35;;;;;;;7.78;5.65;;;12.70;81.60;;;;;;4839715;29;20088;-80
2023/02/17 03:09:04;;;;;;;7.28;5.95;;;12.70;81.50;;;;;;4840276;29;20026;-80
2023/02/17 03:11:33;;;;;;;7.43;5.85;;;12.70;81.60;;;;;;4841521;29;20082;-79
2023/02/17 03:14:10;;;;;;;7.72;6.22;;;12.70;81.60;;;;;;4871111;29;20072;-79
2023/02/17 03:16:38;;;;;;;8.50;6.15;;;12.70;81.60;;;;;;4855655;29;20029;-80
2023/02/17 03:19:05;;;;;;;7.80;5.82;;;12.70;81.50;;;;;;4844592;29;20069;-80
2023/02/17 03:21:42;;;;;;;8.30;5.90;;;12.70;81.60;;;;;;4841514;29;20085;-80
2023/02/17 03:24:09;;;;;;;7.60;6.13;;;12.70;81.60;;;;;;4856175;29;20117;-79
2023/02/17 03:26:35;;;;;;;8.10;6.28;;;12.70;81.50;;;;;;4841363;29;20049;-80
2023/02/17 03:29:00;;;;;;;8.43;6.50;;;12.70;81.60;;;;;;4845727;29;20030;-80
2023/02/17 03:31:28;;;;;;;7.90;6.15;;;12.70;81.50;;;;;;4859672;29;20116;-80
2023/02/17 03:33:53;;;;;;;8.35;6.50;;;12.70;81.50;;;;;;4850545;29;20117;-80
2023/02/17 03:36:19;;;;;;;7.90;6.30;;;12.70;81.50;;;;;;4879588;29;20102;-79
2023/02/17 03:38:45;;;;;;;7.80;6.05;;;12.70;81.50;;;;;;4856606;29;20048;-79
2023/02/17 03:41:11;;;;;;;8.20;6.18;;;12.70;81.50;;;;;;4854532;29;20038;-79
2023/02/17 03:43:36;;;;;;;8.60;6.22;;;12.70;81.50;;;;;;4820937;29;20194;-81
2023/02/17 03:46:02;;;;;;;9.20;6.40;;;12.70;81.50;;;;;;4864038;29;20097;-80
2023/02/17 03:48:28;;;;;;;8.55;6.55;;;12.70;82.20;;;;;;4842329;29;20041;-79
2023/02/17 03:50:54;;;;;;;8.02;6.00;;;12.70;81.50;;;;;;4841718;29;20038;-81
2023/02/17 03:53:20;;;;;;;7.97;5.90;;;12.70;81.60;;;;;;4842900;29;20494;-79
2023/02/17 03:55:45;;;;;;;7.30;5.80;;;12.70;81.60;;;;;;4856358;29;20034;-79
2023/02/17 03:58:11;;;;;;;8.18;6.22;;;12.70;81.60;;;;;;4840890;29;20052;-79
2023/02/17 04:00:37;;;;;;;8.40;6.45;;;12.70;81.60;;;;;;4857048;29;20082;-80
2023/02/17 04:03:03;;;;;;;7.88;5.65;;;12.70;81.60;;;;;;4851785;29;20040;-79
2023/02/17 04:05:29;;;;;;;7.35;5.35;;;12.70;81.60;;;;;;4828315;29;20124;-80
2023/02/17 04:07:55;;;;;;;7.68;5.93;;;12.70;81.60;;;;;;4857190;29;20166;-79
2023/02/17 04:10:21;;;;;;;7.63;5.50;;;12.70;81.60;;;;;;4849821;29;20093;-79
2023/02/17 04:12:46;;;;;;;7.07;5.38;;;12.70;82.20;;;;;;4840496;29;20524;-79
2023/02/17 04:15:12;;;;;;;7.10;5.35;;;12.70;81.60;;;;;;4834258;29;20415;-80
2023/02/17 04:17:38;;;;;;;7.82;5.55;;;12.70;81.50;;;;;;4858024;29;20030;-80
2023/02/17 04:20:06;;;;;;;6.88;5.40;;;12.70;81.50;;;;;;4849081;29;20057;-80
2023/02/17 04:22:32;;;;;;;6.88;5.30;;;12.70;81.50;;;;;;4856011;29;20041;-79
2023/02/17 04:24:58;;;;;;;8.25;5.78;;;12.70;81.50;;;;;;4859288;29;20017;-80
2023/02/17 04:27:24;;;;;;;7.70;5.88;;;12.70;81.60;;;;;;4866020;29;21241;-79
2023/02/17 04:29:50;;;;;;;6.85;5.10;;;12.70;82.20;;;;;;4863519;29;20030;-79
2023/02/17 04:32:16;;;;;;;8.00;5.78;;;12.70;81.60;;;;;;4845527;29;20124;-80
2023/02/17 04:34:42;;;;;;;7.07;5.25;;;12.70;81.60;;;;;;4829345;29;20133;-79
2023/02/17 04:37:08;;;;;;;6.72;5.45;;;12.70;81.50;;;;;;4848278;29;20037;-79
2023/02/17 04:39:34;;;;;;;7.32;5.53;;;12.70;81.50;;;;;;4840936;29;20042;-79
2023/02/17 04:41:59;;;;;;;7.05;5.63;;;12.70;81.50;;;;;;4857051;29;20038;-79
2023/02/17 04:44:25;;;;;;;7.57;5.70;;;12.70;81.50;;;;;;4865272;29;20053;-78
2023/02/17 04:46:51;;;;;;;7.75;5.68;;;12.70;81.60;;;;;;4831635;29;20449;-81
2023/02/17 04:49:16;;;;;;;6.95;5.55;;;12.70;81.60;;;;;;4862080;29;20042;-79
2023/02/17 04:51:42;;;;;;;7.45;6.28;;;12.70;81.50;;;;;;4843343;29;20039;-79
2023/02/17 04:54:08;;;;;;;7.15;5.28;;;12.70;81.60;;;;;;4827729;29;20034;-80
2023/02/17 04:56:34;;;;;;;8.25;6.07;;;12.70;81.60;;;;;;4843247;29;20037;-79
2023/02/17 04:59:00;;;;;;;7.70;6.28;;;12.70;81.60;;;;;;4846578;29;20047;-79
2023/02/17 05:01:25;;;;;;;7.45;5.93;;;12.70;81.60;;;;;;4843379;29;20033;-79
2023/02/17 05:03:51;;;;;;;7.45;5.82;;;12.70;81.60;;;;;;4859984;29;20082;-80
2023/02/17 05:06:17;;;;;;;7.65;5.90;;;12.70;81.60;;;;;;4863588;29;20483;-80
2023/02/17 05:08:42;;;;;;;8.40;6.22;;;12.80;81.60;;;;;;4861200;29;20371;-81
2023/02/17 05:11:08;;;;;;;8.43;6.78;;;12.70;81.60;;;;;;4862565;29;20037;-79
2023/02/17 05:13:34;;;;;;;7.90;6.07;;;12.70;81.60;;;;;;4843532;29;20041;-79
2023/02/17 05:16:00;;;;;;;8.18;6.60;;;12.70;81.60;;;;;;4844401;29;20394;-79
2023/02/17 05:18:25;;;;;;;7.50;6.03;;;12.80;81.70;;;;;;4843279;29;20044;-79
2023/02/17 05:20:51;;;;;;;8.13;6.30;;;12.70;81.60;;;;;;4842569;29;20045;-79
2023/02/17 05:23:17;;;;;;;8.77;7.03;;;12.80;81.60;;;;;;4844070;29;20030;-80
2023/02/17 05:25:43;;;;;;;8.27;6.45;;;12.70;81.60;;;;;;4831263;29;20051;-79
2023/02/17 05:28:11;;;;;;;7.97;6.88;;;12.70;81.60;;;;;;4843162;29;20125;-79
2023/02/17 05:30:37;;;;;;;8.85;6.78;;;12.80;81.70;;;;;;4858697;29;20041;-79
2023/02/17 05:33:03;;;;;;;8.10;6.43;;;12.70;81.60;;;;;;4845090;29;20037;-79
2023/02/17 05:35:28;;;;;;;8.10;6.63;;;12.70;81.50;;;;;;4814693;29;20029;-80
2023/02/17 05:37:54;;;;;;;7.97;6.60;;;12.80;81.60;;;;;;4858696;29;20030;-79
2023/02/17 05:40:20;;;;;;;8.23;6.70;;;12.80;81.60;;;;;;4845859;29;20114;-79
2023/02/17 05:42:46;;;;;;;9.07;7.30;;;12.80;81.60;;;;;;4866329;29;20029;-79
2023/02/17 05:45:12;;;;;;;8.68;6.97;;;12.80;81.60;;;;;;4834280;29;20057;-79
2023/02/17 05:47:37;;;;;;;9.75;7.57;;;12.80;81.60;;;;;;4843118;29;20120;-80
2023/02/17 05:50:04;;;;;;;8.45;6.88;;;12.80;81.60;;;;;;4842458;29;20467;-80
2023/02/17 05:52:29;;;;;;;9.05;7.47;;;12.80;81.60;;;;;;4819003;29;20026;-79
2023/02/17 05:54:55;;;;;;;8.57;6.93;;;12.80;81.60;;;;;;4842963;29;20042;-80
2023/02/17 05:57:21;;;;;;;8.25;6.75;;;12.80;81.60;;;;;;4845931;29;20111;-80
2023/02/17 05:59:47;;;;;;;8.98;7.00;;;12.80;81.60;;;;;;4874181;29;20061;-79
2023/02/17 06:02:13;;;;;;;9.77;7.15;;;12.80;82.30;;;;;;4841636;29;20029;-79
2023/02/17 06:04:38;;;;;;;9.00;7.20;;;12.80;81.70;;;;;;4830358;29;20033;-79
2023/02/17 06:07:04;;;;;;;8.93;7.25;;;12.80;81.60;;;;;;4855783;29;20120;-79
2023/02/17 06:09:30;;;;;;;10.45;8.27;;;12.80;81.60;;;;;;4853547;29;20033;-80
2023/02/17 06:11:56;;;;;;;9.30;7.72;;;12.80;81.60;;;;;;4853526;29;20499;-81
2023/02/17 06:14:22;;;;;;;9.35;7.20;;;12.80;81.60;;;;;;4828045;29;20060;-80
2023/02/17 06:16:48;;;;;;;10.15;7.63;;;12.80;81.60;;;;;;4862523;29;20029;-79
2023/02/17 06:19:14;;;;;;;9.30;7.70;;;12.80;81.60;;;;;;4841654;29;20046;-80
2023/02/17 06:21:42;;;;;;;9.48;7.72;;;12.80;81.60;;;;;;4841108;29;20494;-80
2023/02/17 06:24:08;;;;;;;9.38;7.47;;;12.80;81.60;;;;;;4826353;29;20061;-80
2023/02/17 06:26:34;;;;;;;9.63;7.88;;;12.80;81.70;;;;;;4842076;29;20366;-80
2023/02/17 06:29:00;;;;;;;9.88;7.93;;;12.80;81.60;;;;;;4834672;29;20042;-80
2023/02/17 06:31:25;;;;;;;9.43;7.75;;;12.80;81.60;;;;;;4836686;29;20065;-80
2023/02/17 06:33:51;;;;;;;10.00;7.80;;;12.80;81.60;;;;;;4839556;29;20048;-80
2023/02/17 06:36:17;;;;;;;8.35;6.88;;;12.80;81.60;;;;;;4826736;29;20145;-79
2023/02/17 06:38:43;;;;;;;8.95;7.70;;;12.80;81.60;;;;;;4841704;29;20382;-79
2023/02/17 06:41:09;;;;;;;8.90;7.32;;;12.80;81.60;;;;;;4838121;29;20534;-80
2023/02/17 06:43:34;;;;;;;9.45;7.20;;;12.80;81.60;;;;;;4844037;29;20049;-80
2023/02/17 06:46:00;;;;;;;9.10;7.68;;;12.80;81.60;;;;;;4837976;29;20067;-80
2023/02/17 06:48:26;;;;;;;9.55;8.13;;;12.80;81.60;;;;;;4856559;29;20088;-81
2023/02/17 06:50:52;;;;;;;8.77;6.95;;;12.80;81.60;;;;;;4839586;29;20082;-80
2023/02/17 06:53:17;;;;;;;9.57;7.50;;;12.80;81.70;;;;;;4856749;29;20042;-81
2023/02/17 06:55:44;;;;;;;9.43;7.30;;;12.80;81.70;;;;;;4858572;29;20033;-80
2023/02/17 06:58:10;;;;;;;9.02;7.72;;;12.80;81.70;;;;;;4856925;29;20487;-77
2023/02/17 07:00:35;;;;;;;9.02;7.07;;;12.80;81.70;;;;;;4842202;29;20041;-80
2023/02/17 07:03:01;;;;;;;9.07;7.30;;;12.80;81.70;;;;;;4873547;29;20034;-80
2023/02/17 07:05:27;;;;;;;8.80;6.60;;;12.80;81.70;;;;;;4840866;29;20813;-80
2023/02/17 07:07:55;;;;;;;8.85;7.47;;;12.80;81.70;;;;;;4826986;29;20029;-80
2023/02/17 07:10:21;;;;;;;8.90;7.25;;;12.80;81.70;;;;;;4840355;29;20033;-79
2023/02/17 07:12:47;;;;;;;8.13;6.68;;;12.80;81.70;;;;;;4830933;29;20392;-79
2023/02/17 07:15:13;;;;;;;9.20;7.35;;;12.80;81.60;;;;;;4843234;29;20048;-78
2023/02/17 07:17:39;;;;;;;8.35;6.38;;;12.80;81.70;;;;;;4846759;29;20036;-80
2023/02/17 07:20:06;;;;;;;8.38;6.80;;;12.80;81.60;;;;;;4848786;29;20037;-80
2023/02/17 07:22:31;;;;;;;9.07;7.07;;;12.80;81.60;;;;;;4808526;29;20494;-79
2023/02/17 07:24:57;;;;;;;8.95;7.35;;;12.80;81.60;;;;;;4852953;29;20033;-79
2023/02/17 07:27:23;;;;;;;9.05;7.05;;;12.80;81.70;;;;;;4841289;29;20135;-79
2023/02/17 07:29:49;;;;;;;8.27;6.95;;;12.80;81.70;;;;;;4859087;29;20037;-78
2023/02/17 07:32:14;;;;;;;8.25;6.93;;;12.80;81.70;;;;;;4859520;29;20093;-78
2023/02/17 07:34:40;;;;;;;8.27;6.57;;;12.80;81.70;;;;;;4864889;29;20026;-79
2023/02/17 07:37:07;;;;;;;8.05;6.72;;;12.80;82.30;;;;;;4841946;29;20034;-79
2023/02/17 07:39:33;;;;;;;9.10;7.53;;;12.80;81.60;;;;;;4873525;29;20112;-80
2023/02/17 07:41:59;;;;;;;8.20;6.45;;;12.80;81.60;;;;;;4841799;29;20121;-77
2023/02/17 07:44:28;;;;;;;8.68;7.20;;;12.80;81.70;;;;;;4828124;29;20062;-79
2023/02/17 07:46:54;;;;;;;8.95;7.30;;;12.80;81.60;;;;;;4856547;29;20029;-78
2023/02/17 07:49:20;;;;;;;8.63;6.95;;;12.80;81.60;;;;;;4856955;29;20025;-78
2023/02/17 07:51:46;;;;;;;8.75;6.75;;;12.80;81.60;;;;;;4844541;29;20367;-79
2023/02/17 07:54:12;;;;;;;8.98;7.05;;;12.80;81.70;;;;;;4841350;29;20040;-78
2023/02/17 07:56:39;;;;;;;9.82;6.95;;;12.80;81.70;;;;;;4840550;29;20041;-81
2023/02/17 07:59:11;;;;;;;9.15;7.38;;;12.80;81.70;;;;;;4863451;29;20041;-80
2023/02/17 08:01:37;;;;;;;9.75;7.78;;;12.90;81.70;;;;;;4822694;29;20045;-78
2023/02/17 08:04:04;;;;;;;9.30;7.03;;;12.80;81.70;;;;;;4818703;29;20432;-79
2023/02/17 08:06:30;;;;;;;8.75;7.05;;;12.80;81.60;;;;;;4859298;29;20045;-81
2023/02/17 08:14:29;;;;;;;9.25;7.03;;;12.80;81.60;;;;;;4875683;29;20038;-79
2023/02/17 08:16:55;;;;;;;7.35;6.07;;;12.80;81.60;;;;;;4830011;29;20387;-80
2023/02/17 08:19:22;;;;;;;9.50;7.47;;;12.80;81.70;;;;;;4858709;29;20117;-79
2023/02/17 08:21:48;;;;;;;9.07;6.97;;;12.90;81.70;;;;;;4844471;29;20108;-79
2023/02/17 08:24:15;;;;;;;8.10;7.00;;;12.90;81.70;;;;;;4860296;29;20102;-79
2023/02/17 08:26:41;;;;;;;9.18;7.32;;;12.90;81.70;;;;;;4861813;29;20057;-82
2023/02/17 08:29:07;;;;;;;8.75;6.63;;;12.90;81.70;;;;;;4857627;29;20359;-79
2023/02/17 08:31:35;;;;;;;9.13;7.65;;;12.90;81.70;;;;;;4863960;29;20030;-79
2023/02/17 08:34:05;;;;;;;8.40;7.13;;;12.90;81.70;;;;;;4857478;29;20044;-81
2023/02/17 08:36:32;;;;;;;8.40;7.00;;;12.90;81.70;;;;;;4861434;29;20540;-80
2023/02/17 08:38:59;;;;;;;11.27;7.28;;;12.90;81.70;;;;;;4859884;29;20026;-79
2023/02/17 08:41:31;;;;;;;8.95;7.43;;;12.90;81.70;;;;;;4859408;29;20025;-80
2023/02/17 08:43:59;;;;;;;9.85;7.22;;;12.90;81.70;;;;;;4859120;29;20064;-80
2023/02/17 08:46:26;;;;;;;8.80;7.43;;;12.90;81.60;;;;;;4850708;29;20497;-78
2023/02/17 08:48:52;;;;;;;8.38;6.47;;;12.90;81.60;;;;;;4859481;29;20037;-79
2023/02/17 08:51:22;;;;;;;8.82;7.38;;;13.00;81.60;;;;;;4833144;29;20033;-78
2023/02/17 08:53:49;;;;;;;8.50;6.60;;;12.90;81.60;;;;;;4843961;29;20463;-79
2023/02/17 08:56:16;;;;;;;8.77;7.05;;;12.90;81.60;;;;;;4864386;29;20112;-78
2023/02/17 08:58:41;;;;;;;8.70;6.82;;;12.90;81.60;;;;;;4828564;29;20547;-82
2023/02/17 09:01:07;;;;;;;7.93;6.72;;;13.00;81.70;;;;;;4844868;29;20163;-79
2023/02/17 09:03:36;;;;;;;8.45;7.35;;;13.00;81.70;;;;;;4844594;29;20517;-80
2023/02/17 09:06:03;;;;;;;8.45;6.80;;;12.90;81.60;;;;;;4863480;29;20526;-78
2023/02/17 09:08:29;;;;;;;7.30;5.72;;;13.00;81.60;;;;;;4843396;29;20025;-80
2023/02/17 09:10:58;;;;;;;7.65;6.25;;;13.00;81.60;;;;;;4860010;29;20448;-79
2023/02/17 09:13:25;;;;;;;7.97;6.20;;;13.00;81.70;;;;;;4856051;29;20022;-81
2023/02/17 09:15:52;;;;;;;8.13;6.15;;;13.00;81.60;;;;;;4838975;29;20506;-78
2023/02/17 09:18:22;;;;;;;7.82;5.78;;;13.00;81.60;;;;;;4843325;29;20070;-79
2023/02/17 09:20:48;;;;;;;7.85;6.05;;;13.00;81.60;;;;;;4845325;29;20603;-80
2023/02/17 09:23:15;;;;;;;8.20;6.07;;;13.00;81.60;;;;;;4860515;29;20101;-79
2023/02/17 09:25:43;;;;;;;7.30;5.80;;;13.00;81.60;;;;;;4843492;29;20029;-79
2023/02/17 09:28:09;;;;;;;6.30;4.90;;;13.00;81.60;;;;;;4854980;29;20056;-79
2023/02/17 09:30:36;;;;;;;6.93;5.25;;;13.00;81.60;;;;;;4859864;29;20035;-80
2023/02/17 09:33:04;;;;;;;7.55;5.90;;;13.10;81.60;;;;;;4858536;29;20029;-79
2023/02/17 09:35:30;;;;;;;6.53;5.35;;;13.10;82.30;;;;;;4863044;29;20033;-80
2023/02/17 09:37:56;;;;;;;6.38;5.05;;;13.00;81.60;;;;;;4861210;29;20068;-78
2023/02/17 09:40:26;;;;;;;6.55;4.95;;;13.00;81.60;;;;;;4845207;29;20539;-79
2023/02/17 09:42:52;;;;;;;6.97;5.45;;;13.10;81.60;;;;;;4854079;29;20037;-79
2023/02/17 09:45:26;;;;;;;6.20;4.93;;;13.10;81.60;;;;;;4853258;29;20054;-79
2023/02/17 09:47:59;;;;;;;6.77;4.97;;;13.10;81.60;;;;;;4858478;29;20515;-80
2023/02/17 09:50:30;;;;;;;6.43;4.82;;;13.10;81.60;;;;;;4862832;29;20053;-79
2023/02/17 09:52:59;;;;;;;5.97;4.80;;;13.10;81.60;;;;;;4848018;29;20089;-78
2023/02/17 09:55:33;;;;;;;5.70;4.50;;;13.10;81.60;;;;;;4848230;29;20455;-79
2023/02/17 09:58:01;;;;;;;6.10;4.65;;;13.10;81.60;;;;;;4864726;29;20795;-79
2023/02/17 10:00:40;;;;;;;5.97;4.65;;;13.20;81.60;;;;;;4858510;29;20807;-79
2023/02/17 10:03:36;;;;;;;5.45;4.20;;;13.20;81.60;;;;;;4836377;29;20255;-78
2023/02/17 10:06:12;;;;;;;5.78;4.53;;;13.20;81.60;;;;;;4855207;29;20025;-79
2023/02/17 10:08:45;;;;;;;5.20;4.32;;;13.20;81.60;;;;;;4861943;29;20028;-78
2023/02/17 10:11:30;;;;;;;5.85;4.13;;;13.20;81.60;;;;;;4862582;29;20029;-79
2023/02/17 10:14:04;;;;;;;5.78;4.30;;;13.20;81.60;;;;;;4838311;29;20025;-78
2023/02/17 10:16:44;;;;;;;5.68;4.50;;;13.20;81.60;;;;;;4869774;29;20386;-79
2023/02/17 10:19:27;;;;;;;5.47;4.18;;;13.20;81.60;;;;;;4871248;29;20026;-80
2023/02/17 10:22:15;;;;;;;5.30;4.00;;;13.20;81.60;;;;;;4845779;29;20046;-79
2023/02/17 10:24:41;;;;;;;4.38;3.45;;;13.20;81.60;;;;;;4854449;29;20040;-79
2023/02/17 10:27:37;;;;;;;4.75;3.70;;;13.20;81.50;;;;;;4828520;29;20033;-79
2023/02/17 10:30:10;;;;;;;4.60;3.60;;;13.30;81.70;;;;;;4841979;29;20029;-78
2023/02/17 10:33:16;;;;;;;5.05;3.90;;;13.20;81.50;;;;;;4858604;29;20057;-78
2023/02/17 10:35:51;;;;;;;5.32;3.88;;;13.30;81.70;;;;;;4842127;29;20048;-78
2023/02/17 10:38:57;;;;;;;4.45;3.40;;;13.30;81.60;;;;;;4840760;29;20037;-80
2023/02/17 10:41:25;;;;;;;;;;;13.30;81.60;;;;;;4816689;29;20053;-80
2023/02/17 10:43:52;;;;;;;4.32;2.92;;;13.30;81.50;;;;;;4841773;29;20040;-80
2023/02/17 10:46:29;;;;;;;4.53;3.38;;;13.30;81.40;;;;;;4863983;29;20192;-79
2023/02/17 10:48:56;;;;;;;4.63;3.08;;;13.30;81.50;;;;;;4857539;29;20420;-79
2023/02/17 10:51:27;;;;;;;4.72;3.55;;;13.40;81.50;;;;;;4857829;29;20082;-79
2023/02/17 10:54:03;;;;;;;4.03;3.08;;;13.40;81.60;;;;;;4867998;29;20403;-79
2023/02/17 10:56:43;;;;;;;4.10;3.03;;;13.40;81.60;;;;;;4857574;29;20049;-79
2023/02/17 10:59:26;;;;;;;4.45;3.30;;;13.40;81.60;;;;;;4872898;29;20033;-79
2023/02/17 11:01:59;;;;;;;4.20;3.10;;;13.40;81.50;;;;;;4870122;29;20033;-79
2023/02/17 11:04:25;;;;;;;4.53;3.20;;;13.40;81.50;;;;;;4863471;29;20036;-79
2023/02/17 11:06:54;;;;;;;4.95;3.40;;;13.40;81.50;;;;;;4850613;29;20486;-80
2023/02/17 11:09:30;;;;;;;4.97;3.30;;;13.40;81.50;;;;;;4850323;29;20025;-79
2023/02/17 11:12:12;;;;;;;4.53;3.55;;;13.40;81.50;;;;;;4854738;29;20036;-79
2023/02/17 11:14:44;;;;;;;4.78;3.28;;;13.40;81.50;;;;;;4858083;29;20045;-79
2023/02/17 11:17:27;;;;;;;4.25;3.10;;;13.50;81.50;;;;;;4857207;29;20480;-81
2023/02/17 11:20:05;;;;;;;4.82;3.38;;;13.50;81.50;;;;;;4862240;29;20063;-79
2023/02/17 11:22:41;;;;;;;3.53;2.83;;;13.50;81.50;;;;;;4859206;29;20036;-80
2023/02/17 11:25:31;;;;;;;4.53;3.40;;;13.50;81.50;;;;;;4856764;29;20033;-79
2023/02/17 11:28:03;;;;;;;4.15;2.97;;;13.50;81.50;;;;;;4846100;29;20420;-80
2023/02/17 11:30:32;;;;;;;4.32;3.35;;;13.50;81.40;;;;;;4857541;29;20037;-79
2023/02/17 11:32:58;;;;;;;4.30;3.08;;;13.50;81.50;;;;;;4857200;29;20021;-79
2023/02/17 11:35:36;;;;;;;4.30;3.03;;;13.50;81.40;;;;;;4837871;29;20116;-79
2023/02/17 11:38:13;;;;;;;4.40;3.30;;;13.60;81.50;;;;;;4852385;29;20034;-79
2023/02/17 11:40:39;;;;;;;3.80;3.00;;;13.50;81.40;;;;;;4870313;29;20037;-80
2023/02/17 11:43:05;;;;;;;5.10;3.25;;;13.60;81.50;;;;;;4844811;29;20056;-79
2023/02/17 11:45:42;;;;;;;4.30;3.15;;;13.60;81.50;;;;;;4851438;29;20407;-80
2023/02/17 11:48:21;;;;;;;5.13;3.20;;;13.60;81.50;;;;;;4873289;29;20037;-81
2023/02/17 11:50:59;;;;;;;4.00;3.00;;;13.60;81.50;;;;;;4857601;29;20161;-80
2023/02/17 11:53:30;;;;;;;4.90;3.22;;;13.60;81.40;;;;;;4863035;29;20039;-80
2023/02/17 11:56:15;;;;;;;5.40;3.13;;;13.60;81.40;;;;;;4840795;29;20110;-79
2023/02/17 11:58:44;;;;;;;;;;;13.70;81.50;;;;;;4849596;29;20132;-81
2023/02/17 12:01:37;;;;;;;3.65;2.85;;;13.60;81.30;;;;;;4856992;29;19915;-80
2023/02/17 12:04:30;;;;;;;3.58;2.65;;;13.70;81.40;;;;;;4857457;29;20021;-80
2023/02/17 12:07:32;;;;;;;4.35;3.05;;;13.70;81.40;;;;;;4853272;29;20037;-79
2023/02/17 12:10:20;;;;;;;4.80;3.13;;;13.70;81.40;;;;;;4858603;29;20367;-78
2023/02/17 12:13:34;;;;;;;4.63;3.05;;;13.70;81.40;;;;;;4843823;29;20060;-80
2023/02/17 12:16:18;;;;;;;4.35;3.03;;;13.70;81.50;;;;;;4814671;29;20051;-80
2023/02/17 12:18:56;;;;;;;5.07;3.28;;;13.70;81.40;;;;;;4826021;29;20049;-81
2023/02/17 12:21:48;;;;;;;5.55;3.40;;;13.70;81.40;;;;;;4851309;29;20033;-81
2023/02/17 12:24:41;;;;;;;4.45;3.03;;;13.70;81.40;;;;;;4863675;29;20478;-77
2023/02/17 12:27:25;;;;;;;3.70;2.90;;;13.70;81.40;;;;;;4833854;29;20045;-81
2023/02/17 12:30:11;;;;;;;4.88;3.00;;;13.70;81.40;;;;;;4871904;29;20029;-80
2023/02/17 12:32:46;;;;;;;4.20;3.20;;;13.70;81.40;;;;;;4860540;29;20039;-79
2023/02/17 12:35:23;;;;;;;5.07;3.63;;;13.70;81.40;;;;;;4864064;29;20049;-79
2023/02/17 12:37:59;;;;;;;5.35;3.85;;;13.80;81.50;;;;;;4860755;29;20040;-79
2023/02/17 12:40:38;;;;;;;5.15;3.53;;;13.80;81.40;;;;;;4859909;29;20052;-80
2023/02/17 12:43:25;;;;;;;4.90;3.53;;;13.80;81.40;;;;;;4860838;29;20117;-79
2023/02/17 12:45:55;;;;;;;4.47;3.63;;;13.80;81.40;;;;;;4866270;29;20467;-79
2023/02/17 12:48:35;;;;;;;5.80;4.43;;;13.80;81.30;;;;;;4856336;29;20037;-79
2023/02/17 12:51:19;;;;;;;4.80;3.65;;;13.80;81.30;;;;;;4879715;29;20592;-79
2023/02/17 12:53:56;;;;;;;4.80;3.58;;;13.80;81.30;;;;;;4857728;29;20157;-78
2023/02/17 12:56:27;;;;;;;5.45;3.97;;;13.80;81.30;;;;;;4860521;29;20041;-79
2023/02/17 12:58:57;;;;;;;4.95;3.85;;;13.90;81.30;;;;;;4844838;29;20082;-79
2023/02/17 13:01:28;;;;;;;6.30;3.85;;;13.90;81.40;;;;;;4865434;29;20038;-79
2023/02/17 13:03:54;;;;;;;5.97;3.90;;;13.90;81.40;;;;;;4844273;29;20029;-79
2023/02/17 13:06:36;;;;;;;6.40;4.07;;;13.90;81.30;;;;;;4828480;29;20034;-79
2023/02/17 13:09:36;;;;;;;5.25;3.83;;;13.90;81.30;;;;;;4859092;29;20036;-79
2023/02/17 13:12:31;;;;;;;5.65;3.97;;;13.90;81.40;;;;;;4818262;29;20065;-79